sensor_id;sensor_type;location;lat;lon;timestamp;pressure;altitude;pressure_sealevel;temperature;humidity
4576;BME280;2300;51.874;8.430;2023-04-28T00:01:09;100673.09;;;8.99;56.97
4576;BME280;2300;51.874;8.430;2023-04-28T00:03:35;100655.84;;;8.92;57.69
4576;BME280;2300;51.874;8.430;2023-04-28T00:06:02;100646.44;;;8.82;58.39
4576;BME280;2300;51.874;8.430;2023-04-28T00:08:29;100664.66;;;9.01;57.81
4576;BME280;2300;51.874;8.430;2023-04-28T00:10:55;100648.66;;;8.98;58.06
4576;BME280;2300;51.874;8.430;2023-04-28T00:13:23;100615.56;;;8.75;57.31
4576;BME280;2300;51.874;8.430;2023-04-28T00:15:49;100651.16;;;8.99;57.75
4576;BME280;2300;51.874;8.430;2023-04-28T00:18:17;100645.69;;;8.99;57.95
4576;BME280;2300;51.874;8.430;2023-04-28T00:20:43;100579.44;;;8.59;57.93
4576;BME280;2300;51.874;8.430;2023-04-28T00:23:09;100632.84;;;9.00;58.13
4576;BME280;2300;51.874;8.430;2023-04-28T00:25:36;100632.22;;;8.98;58.78
4576;BME280;2300;51.874;8.430;2023-04-28T00:28:02;100636.34;;;9.07;58.65
4576;BME280;2300;51.874;8.430;2023-04-28T00:30:30;100620.19;;;8.99;59.17
4576;BME280;2300;51.874;8.430;2023-04-28T00:32:57;100628.59;;;9.04;58.70
4576;BME280;2300;51.874;8.430;2023-04-28T00:35:23;100620.50;;;8.91;58.77
4576;BME280;2300;51.874;8.430;2023-04-28T00:37:50;100597.34;;;8.87;59.21
4576;BME280;2300;51.874;8.430;2023-04-28T00:40:16;100608.78;;;9.02;58.50
4576;BME280;2300;51.874;8.430;2023-04-28T00:42:42;100607.34;;;8.99;58.72
4576;BME280;2300;51.874;8.430;2023-04-28T00:45:09;100614.69;;;9.05;58.73
4576;BME280;2300;51.874;8.430;2023-04-28T00:47:37;100599.50;;;9.03;58.21
4576;BME280;2300;51.874;8.430;2023-04-28T00:50:04;100600.56;;;9.02;59.03
4576;BME280;2300;51.874;8.430;2023-04-28T00:52:31;100599.75;;;9.01;58.74
4576;BME280;2300;51.874;8.430;2023-04-28T00:54:58;100608.19;;;9.00;58.79
4576;BME280;2300;51.874;8.430;2023-04-28T00:57:25;100604.59;;;8.99;59.21
4576;BME280;2300;51.874;8.430;2023-04-28T00:59:51;100601.34;;;9.09;58.62
4576;BME280;2300;51.874;8.430;2023-04-28T01:02:17;100597.03;;;9.01;59.02
4576;BME280;2300;51.874;8.430;2023-04-28T01:04:45;100593.59;;;9.06;58.97
4576;BME280;2300;51.874;8.430;2023-04-28T01:07:12;100593.44;;;9.01;59.32
4576;BME280;2300;51.874;8.430;2023-04-28T01:09:38;100598.91;;;9.01;59.06
4576;BME280;2300;51.874;8.430;2023-04-28T01:12:05;100590.88;;;9.06;59.28
4576;BME280;2300;51.874;8.430;2023-04-28T01:14:32;100571.19;;;8.91;59.77
4576;BME280;2300;51.874;8.430;2023-04-28T01:16:59;100576.69;;;8.91;60.34
4576;BME280;2300;51.874;8.430;2023-04-28T01:19:26;100575.47;;;9.05;59.96
4576;BME280;2300;51.874;8.430;2023-04-28T01:21:55;100575.28;;;9.06;59.50
4576;BME280;2300;51.874;8.430;2023-04-28T01:24:23;100576.53;;;9.04;59.90
4576;BME280;2300;51.874;8.430;2023-04-28T01:26:49;100546.97;;;8.88;60.36
4576;BME280;2300;51.874;8.430;2023-04-28T01:29:16;100566.22;;;9.06;59.73
4576;BME280;2300;51.874;8.430;2023-04-28T01:31:42;100560.41;;;8.96;60.16
4576;BME280;2300;51.874;8.430;2023-04-28T01:34:08;100567.25;;;9.05;60.84
4576;BME280;2300;51.874;8.430;2023-04-28T01:36:35;100568.78;;;9.01;60.54
4576;BME280;2300;51.874;8.430;2023-04-28T01:39:02;100565.59;;;9.04;60.25
4576;BME280;2300;51.874;8.430;2023-04-28T01:41:30;100556.75;;;9.02;61.51
4576;BME280;2300;51.874;8.430;2023-04-28T01:43:58;100549.63;;;9.01;61.22
4576;BME280;2300;51.874;8.430;2023-04-28T01:46:25;100552.25;;;9.07;60.26
4576;BME280;2300;51.874;8.430;2023-04-28T01:48:51;100541.56;;;9.06;60.56
4576;BME280;2300;51.874;8.430;2023-04-28T01:51:18;100548.69;;;9.07;60.16
4576;BME280;2300;51.874;8.430;2023-04-28T01:53:44;100547.78;;;9.13;60.60
4576;BME280;2300;51.874;8.430;2023-04-28T01:56:10;100539.25;;;9.03;60.83
4576;BME280;2300;51.874;8.430;2023-04-28T01:58:38;100540.88;;;9.10;60.94
4576;BME280;2300;51.874;8.430;2023-04-28T02:01:05;100541.88;;;9.16;60.39
4576;BME280;2300;51.874;8.430;2023-04-28T02:03:31;100546.94;;;9.12;60.81
4576;BME280;2300;51.874;8.430;2023-04-28T02:05:58;100538.28;;;9.15;60.84
4576;BME280;2300;51.874;8.430;2023-04-28T02:08:24;100531.81;;;9.10;61.34
4576;BME280;2300;51.874;8.430;2023-04-28T02:10:51;100529.69;;;9.12;60.85
4576;BME280;2300;51.874;8.430;2023-04-28T02:13:17;100495.72;;;8.95;60.97
4576;BME280;2300;51.874;8.430;2023-04-28T02:15:45;100531.81;;;9.10;61.64
4576;BME280;2300;51.874;8.430;2023-04-28T02:18:11;100526.78;;;9.07;61.73
4576;BME280;2300;51.874;8.430;2023-04-28T02:20:38;100525.72;;;9.08;61.67
4576;BME280;2300;51.874;8.430;2023-04-28T02:23:04;100524.34;;;8.99;62.07
4576;BME280;2300;51.874;8.430;2023-04-28T02:25:31;100518.41;;;9.02;62.50
4576;BME280;2300;51.874;8.430;2023-04-28T02:27:57;100518.66;;;9.00;62.54
4576;BME280;2300;51.874;8.430;2023-04-28T02:30:24;100520.75;;;8.98;62.79
4576;BME280;2300;51.874;8.430;2023-04-28T02:32:52;100511.69;;;8.98;62.73
4576;BME280;2300;51.874;8.430;2023-04-28T02:35:18;100513.38;;;8.99;62.84
4576;BME280;2300;51.874;8.430;2023-04-28T02:37:45;100497.72;;;9.06;62.34
4576;BME280;2300;51.874;8.430;2023-04-28T02:40:12;100491.94;;;8.96;63.35
4576;BME280;2300;51.874;8.430;2023-04-28T02:42:38;100467.41;;;8.83;62.65
4576;BME280;2300;51.874;8.430;2023-04-28T02:45:05;100480.59;;;8.92;62.22
4576;BME280;2300;51.874;8.430;2023-04-28T02:47:32;100492.25;;;9.06;62.54
4576;BME280;2300;51.874;8.430;2023-04-28T02:50:00;100473.00;;;8.94;62.22
4576;BME280;2300;51.874;8.430;2023-04-28T02:52:26;100477.72;;;9.05;62.89
4576;BME280;2300;51.874;8.430;2023-04-28T02:54:53;100450.47;;;8.92;62.88
4576;BME280;2300;51.874;8.430;2023-04-28T02:57:22;100477.25;;;9.08;62.93
4576;BME280;2300;51.874;8.430;2023-04-28T02:59:48;100475.72;;;9.12;62.86
4576;BME280;2300;51.874;8.430;2023-04-28T03:02:15;100475.81;;;9.06;63.63
4576;BME280;2300;51.874;8.430;2023-04-28T03:04:41;100462.81;;;9.01;62.97
4576;BME280;2300;51.874;8.430;2023-04-28T03:07:09;100465.59;;;9.13;63.08
4576;BME280;2300;51.874;8.430;2023-04-28T03:09:36;100464.31;;;8.97;63.45
4576;BME280;2300;51.874;8.430;2023-04-28T03:12:03;100469.88;;;9.09;62.74
4576;BME280;2300;51.874;8.430;2023-04-28T03:14:30;100461.59;;;9.15;62.55
4576;BME280;2300;51.874;8.430;2023-04-28T03:16:56;100462.28;;;9.11;63.58
4576;BME280;2300;51.874;8.430;2023-04-28T03:19:23;100418.91;;;8.90;63.51
4576;BME280;2300;51.874;8.430;2023-04-28T03:21:50;100453.81;;;9.12;62.74
4576;BME280;2300;51.874;8.430;2023-04-28T03:24:18;100461.22;;;9.12;63.29
4576;BME280;2300;51.874;8.430;2023-04-28T03:26:45;100472.75;;;9.14;63.76
4576;BME280;2300;51.874;8.430;2023-04-28T03:29:11;100453.44;;;9.09;63.34
4576;BME280;2300;51.874;8.430;2023-04-28T03:31:38;100452.53;;;9.15;63.76
4576;BME280;2300;51.874;8.430;2023-04-28T03:34:04;100455.88;;;9.17;63.15
4576;BME280;2300;51.874;8.430;2023-04-28T03:36:31;100450.31;;;9.24;63.42
4576;BME280;2300;51.874;8.430;2023-04-28T03:38:57;100423.16;;;9.04;63.28
4576;BME280;2300;51.874;8.430;2023-04-28T03:41:25;100433.81;;;9.12;63.34
4576;BME280;2300;51.874;8.430;2023-04-28T03:43:52;100444.94;;;9.17;64.07
4576;BME280;2300;51.874;8.430;2023-04-28T03:46:18;100437.16;;;8.96;63.72
4576;BME280;2300;51.874;8.430;2023-04-28T03:48:45;100439.44;;;9.17;63.86
4576;BME280;2300;51.874;8.430;2023-04-28T03:51:11;100448.88;;;9.21;63.10
4576;BME280;2300;51.874;8.430;2023-04-28T03:53:39;100425.59;;;9.12;63.83
4576;BME280;2300;51.874;8.430;2023-04-28T03:56:06;100436.03;;;9.22;63.29
4576;BME280;2300;51.874;8.430;2023-04-28T03:58:34;100439.34;;;9.24;63.75
4576;BME280;2300;51.874;8.430;2023-04-28T04:01:00;100431.88;;;9.12;64.26
4576;BME280;2300;51.874;8.430;2023-04-28T04:03:27;100437.44;;;9.24;64.11
4576;BME280;2300;51.874;8.430;2023-04-28T04:05:53;100403.84;;;8.99;63.81
4576;BME280;2300;51.874;8.430;2023-04-28T04:08:20;100434.50;;;9.26;63.58
4576;BME280;2300;51.874;8.430;2023-04-28T04:10:47;100437.59;;;9.29;63.77
4576;BME280;2300;51.874;8.430;2023-04-28T04:13:13;100406.25;;;9.07;63.80
4576;BME280;2300;51.874;8.430;2023-04-28T04:15:41;100411.66;;;9.13;64.00
4576;BME280;2300;51.874;8.430;2023-04-28T04:18:07;100441.94;;;9.19;64.11
4576;BME280;2300;51.874;8.430;2023-04-28T04:20:34;100450.84;;;9.32;64.87
4576;BME280;2300;51.874;8.430;2023-04-28T04:23:00;100427.94;;;9.27;65.14
4576;BME280;2300;51.874;8.430;2023-04-28T04:25:27;100430.53;;;9.22;64.58
4576;BME280;2300;51.874;8.430;2023-04-28T04:27:54;100420.84;;;9.19;65.37
4576;BME280;2300;51.874;8.430;2023-04-28T04:30:20;100431.97;;;9.24;65.74
4576;BME280;2300;51.874;8.430;2023-04-28T04:32:48;100435.53;;;9.25;65.97
4576;BME280;2300;51.874;8.430;2023-04-28T04:35:15;100428.50;;;9.17;67.09
4576;BME280;2300;51.874;8.430;2023-04-28T04:37:41;100421.78;;;9.13;67.76
4576;BME280;2300;51.874;8.430;2023-04-28T04:40:09;100417.22;;;9.07;67.74
4576;BME280;2300;51.874;8.430;2023-04-28T04:42:35;100390.63;;;8.96;67.77
4576;BME280;2300;51.874;8.430;2023-04-28T04:45:02;100409.84;;;8.89;68.89
4576;BME280;2300;51.874;8.430;2023-04-28T04:47:28;100394.94;;;8.85;69.30
4576;BME280;2300;51.874;8.430;2023-04-28T04:49:58;100391.38;;;8.85;68.98
4576;BME280;2300;51.874;8.430;2023-04-28T04:52:25;100397.22;;;8.88;70.29
4576;BME280;2300;51.874;8.430;2023-04-28T04:54:51;100417.38;;;8.94;70.67
4576;BME280;2300;51.874;8.430;2023-04-28T04:57:18;100417.75;;;8.97;70.95
4576;BME280;2300;51.874;8.430;2023-04-28T04:59:44;100419.06;;;8.95;71.17
4576;BME280;2300;51.874;8.430;2023-04-28T05:02:11;100414.78;;;8.99;72.27
4576;BME280;2300;51.874;8.430;2023-04-28T05:04:37;100414.16;;;8.97;72.18
4576;BME280;2300;51.874;8.430;2023-04-28T05:07:05;100398.06;;;8.89;72.33
4576;BME280;2300;51.874;8.430;2023-04-28T05:09:32;100398.44;;;8.92;71.78
4576;BME280;2300;51.874;8.430;2023-04-28T05:11:58;100401.31;;;8.97;72.20
4576;BME280;2300;51.874;8.430;2023-04-28T05:14:25;100397.72;;;8.97;71.77
4576;BME280;2300;51.874;8.430;2023-04-28T05:16:51;100392.66;;;9.00;72.38
4576;BME280;2300;51.874;8.430;2023-04-28T05:19:18;100389.22;;;9.05;71.96
4576;BME280;2300;51.874;8.430;2023-04-28T05:21:44;100396.81;;;9.03;72.03
4576;BME280;2300;51.874;8.430;2023-04-28T05:24:14;100383.13;;;9.03;71.96
4576;BME280;2300;51.874;8.430;2023-04-28T05:26:40;100386.78;;;9.15;72.59
4576;BME280;2300;51.874;8.430;2023-04-28T05:29:07;100401.38;;;9.27;71.85
4576;BME280;2300;51.874;8.430;2023-04-28T05:31:33;100392.47;;;9.32;72.45
4576;BME280;2300;51.874;8.430;2023-04-28T05:34:00;100416.44;;;9.36;71.67
4576;BME280;2300;51.874;8.430;2023-04-28T05:36:26;100400.00;;;9.36;71.91
4576;BME280;2300;51.874;8.430;2023-04-28T05:38:53;100387.97;;;9.19;72.52
4576;BME280;2300;51.874;8.430;2023-04-28T05:41:21;100391.34;;;9.21;72.39
4576;BME280;2300;51.874;8.430;2023-04-28T05:43:47;100398.31;;;9.35;71.96
4576;BME280;2300;51.874;8.430;2023-04-28T05:46:15;100398.59;;;9.45;72.46
4576;BME280;2300;51.874;8.430;2023-04-28T05:48:42;100383.19;;;9.33;72.16
4576;BME280;2300;51.874;8.430;2023-04-28T05:51:08;100396.00;;;9.50;72.13
4576;BME280;2300;51.874;8.430;2023-04-28T05:53:35;100409.00;;;9.55;72.15
4576;BME280;2300;51.874;8.430;2023-04-28T05:56:01;100343.72;;;9.04;72.38
4576;BME280;2300;51.874;8.430;2023-04-28T05:58:29;100399.47;;;9.57;72.95
4576;BME280;2300;51.874;8.430;2023-04-28T06:00:57;100393.22;;;9.69;72.68
4576;BME280;2300;51.874;8.430;2023-04-28T06:03:23;100389.59;;;9.56;72.81
4576;BME280;2300;51.874;8.430;2023-04-28T06:05:50;100381.66;;;9.48;72.71
4576;BME280;2300;51.874;8.430;2023-04-28T06:08:18;100402.84;;;9.71;72.97
4576;BME280;2300;51.874;8.430;2023-04-28T06:10:44;100366.19;;;9.42;74.07
4576;BME280;2300;51.874;8.430;2023-04-28T06:13:11;100355.00;;;9.55;74.62
4576;BME280;2300;51.874;8.430;2023-04-28T06:15:39;100387.38;;;9.77;74.73
4576;BME280;2300;51.874;8.430;2023-04-28T06:18:05;100399.81;;;9.79;75.06
4576;BME280;2300;51.874;8.430;2023-04-28T06:20:33;100395.25;;;9.73;75.41
4576;BME280;2300;51.874;8.430;2023-04-28T06:23:00;100393.84;;;9.82;76.40
4576;BME280;2300;51.874;8.430;2023-04-28T06:25:27;100380.94;;;9.71;75.92
4576;BME280;2300;51.874;8.430;2023-04-28T06:27:54;100376.19;;;9.78;76.55
4576;BME280;2300;51.874;8.430;2023-04-28T06:30:21;100374.88;;;9.81;77.59
4576;BME280;2300;51.874;8.430;2023-04-28T06:33:04;100366.75;;;9.74;78.01
4576;BME280;2300;51.874;8.430;2023-04-28T06:35:30;100341.97;;;9.81;76.96
4576;BME280;2300;51.874;8.430;2023-04-28T06:38:02;100364.16;;;9.91;78.33
4576;BME280;2300;51.874;8.430;2023-04-28T06:40:28;100353.44;;;10.01;77.74
4576;BME280;2300;51.874;8.430;2023-04-28T06:42:55;100357.53;;;10.10;77.52
4576;BME280;2300;51.874;8.430;2023-04-28T06:45:22;100362.16;;;10.10;77.49
4576;BME280;2300;51.874;8.430;2023-04-28T06:47:49;100357.88;;;10.14;77.99
4576;BME280;2300;51.874;8.430;2023-04-28T06:50:18;100353.50;;;10.24;77.95
4576;BME280;2300;51.874;8.430;2023-04-28T06:52:45;100347.19;;;10.35;77.83
4576;BME280;2300;51.874;8.430;2023-04-28T06:55:14;100352.66;;;10.35;77.93
4576;BME280;2300;51.874;8.430;2023-04-28T06:57:40;100355.03;;;10.55;77.80
4576;BME280;2300;51.874;8.430;2023-04-28T07:00:08;100361.72;;;10.48;77.43
4576;BME280;2300;51.874;8.430;2023-04-28T07:02:35;100342.25;;;10.37;77.35
4576;BME280;2300;51.874;8.430;2023-04-28T07:05:01;100345.69;;;10.21;78.43
4576;BME280;2300;51.874;8.430;2023-04-28T07:07:30;100358.16;;;10.35;78.88
4576;BME280;2300;51.874;8.430;2023-04-28T07:09:56;100355.88;;;10.56;78.93
4576;BME280;2300;51.874;8.430;2023-04-28T07:12:23;100353.94;;;10.68;78.86
4576;BME280;2300;51.874;8.430;2023-04-28T07:14:50;100346.91;;;10.60;78.57
4576;BME280;2300;51.874;8.430;2023-04-28T07:17:16;100349.13;;;10.87;79.00
4576;BME280;2300;51.874;8.430;2023-04-28T07:19:43;100342.81;;;10.74;78.55
4576;BME280;2300;51.874;8.430;2023-04-28T07:22:09;100341.72;;;10.87;78.99
4576;BME280;2300;51.874;8.430;2023-04-28T07:24:37;100346.63;;;10.85;78.86
4576;BME280;2300;51.874;8.430;2023-04-28T07:27:04;100341.50;;;10.77;79.60
4576;BME280;2300;51.874;8.430;2023-04-28T07:29:31;100327.56;;;10.67;79.75
4576;BME280;2300;51.874;8.430;2023-04-28T07:31:58;100321.44;;;10.88;79.62
4576;BME280;2300;51.874;8.430;2023-04-28T07:34:25;100316.50;;;10.90;80.25
4576;BME280;2300;51.874;8.430;2023-04-28T07:36:52;100327.53;;;11.18;80.08
4576;BME280;2300;51.874;8.430;2023-04-28T07:39:19;100344.13;;;11.23;79.34
4576;BME280;2300;51.874;8.430;2023-04-28T07:41:47;100336.50;;;11.42;79.27
4576;BME280;2300;51.874;8.430;2023-04-28T07:44:13;100302.81;;;11.18;80.03
4576;BME280;2300;51.874;8.430;2023-04-28T07:46:40;100333.59;;;11.49;79.31
4576;BME280;2300;51.874;8.430;2023-04-28T07:49:06;100332.44;;;11.45;79.19
4576;BME280;2300;51.874;8.430;2023-04-28T07:51:34;100324.44;;;11.43;79.88
4576;BME280;2300;51.874;8.430;2023-04-28T07:54:00;100315.25;;;11.38;80.23
4576;BME280;2300;51.874;8.430;2023-04-28T07:56:27;100315.75;;;11.35;80.98
4576;BME280;2300;51.874;8.430;2023-04-28T07:58:55;100312.09;;;11.46;80.62
4576;BME280;2300;51.874;8.430;2023-04-28T08:01:21;100312.09;;;11.46;80.82
4576;BME280;2300;51.874;8.430;2023-04-28T08:03:48;100287.41;;;11.79;79.98
4576;BME280;2300;51.874;8.430;2023-04-28T08:06:15;100293.50;;;11.81;79.57
4576;BME280;2300;51.874;8.430;2023-04-28T08:08:41;100296.38;;;12.08;79.59
4576;BME280;2300;51.874;8.430;2023-04-28T08:11:08;100275.44;;;12.24;79.27
4576;BME280;2300;51.874;8.430;2023-04-28T08:13:34;100290.75;;;12.53;78.16
4576;BME280;2300;51.874;8.430;2023-04-28T08:16:02;100276.97;;;12.75;78.58
4576;BME280;2300;51.874;8.430;2023-04-28T08:18:29;100288.38;;;13.05;77.92
4576;BME280;2300;51.874;8.430;2023-04-28T08:20:55;100250.41;;;13.12;77.21
4576;BME280;2300;51.874;8.430;2023-04-28T08:23:22;100273.00;;;13.36;75.53
4576;BME280;2300;51.874;8.430;2023-04-28T08:25:52;100278.00;;;13.71;75.06
4576;BME280;2300;51.874;8.430;2023-04-28T08:28:27;100271.75;;;13.80;74.37
4576;BME280;2300;51.874;8.430;2023-04-28T08:31:01;100266.25;;;13.54;73.69
4576;BME280;2300;51.874;8.430;2023-04-28T08:33:34;100282.19;;;13.78;73.46
4576;BME280;2300;51.874;8.430;2023-04-28T08:36:01;100306.38;;;13.66;73.79
4576;BME280;2300;51.874;8.430;2023-04-28T08:38:28;100301.09;;;13.60;73.75
4576;BME280;2300;51.874;8.430;2023-04-28T08:40:54;100303.50;;;13.51;74.48
4576;BME280;2300;51.874;8.430;2023-04-28T08:43:20;100313.31;;;13.15;74.93
4576;BME280;2300;51.874;8.430;2023-04-28T08:45:48;100306.78;;;13.00;75.15
4576;BME280;2300;51.874;8.430;2023-04-28T08:48:18;100300.63;;;12.92;75.35
4576;BME280;2300;51.874;8.430;2023-04-28T08:50:49;100290.44;;;12.93;75.82
4576;BME280;2300;51.874;8.430;2023-04-28T08:53:21;100298.81;;;13.25;75.85
4576;BME280;2300;51.874;8.430;2023-04-28T08:55:49;100316.50;;;13.29;75.81
4576;BME280;2300;51.874;8.430;2023-04-28T08:58:16;100311.81;;;13.56;74.84
4576;BME280;2300;51.874;8.430;2023-04-28T09:00:43;100308.41;;;13.49;74.77
4576;BME280;2300;51.874;8.430;2023-04-28T09:03:09;100317.63;;;13.60;74.24
4576;BME280;2300;51.874;8.430;2023-04-28T09:05:38;100328.97;;;13.10;75.79
4576;BME280;2300;51.874;8.430;2023-04-28T09:08:04;100321.53;;;12.88;76.17
4576;BME280;2300;51.874;8.430;2023-04-28T09:10:31;100322.09;;;12.90;76.61
4576;BME280;2300;51.874;8.430;2023-04-28T09:12:57;100325.44;;;12.92;76.77
4576;BME280;2300;51.874;8.430;2023-04-28T09:15:25;100305.84;;;12.89;78.20
4576;BME280;2300;51.874;8.430;2023-04-28T09:17:52;100295.78;;;13.00;78.96
4576;BME280;2300;51.874;8.430;2023-04-28T09:20:19;100305.91;;;12.94;79.73
4576;BME280;2300;51.874;8.430;2023-04-28T09:22:48;100302.53;;;13.14;80.20
4576;BME280;2300;51.874;8.430;2023-04-28T09:25:16;100296.19;;;13.13;81.15
4576;BME280;2300;51.874;8.430;2023-04-28T09:27:42;100296.81;;;12.77;82.08
4576;BME280;2300;51.874;8.430;2023-04-28T09:30:10;100296.03;;;12.81;83.48
4576;BME280;2300;51.874;8.430;2023-04-28T09:32:37;100247.50;;;12.32;83.71
4576;BME280;2300;51.874;8.430;2023-04-28T09:35:05;100282.06;;;12.44;84.45
4576;BME280;2300;51.874;8.430;2023-04-28T09:37:33;100275.03;;;12.53;84.72
4576;BME280;2300;51.874;8.430;2023-04-28T09:40:07;100279.50;;;12.60;84.89
4576;BME280;2300;51.874;8.430;2023-04-28T09:42:35;100248.59;;;12.74;85.44
4576;BME280;2300;51.874;8.430;2023-04-28T09:45:03;100250.63;;;12.84;85.61
4576;BME280;2300;51.874;8.430;2023-04-28T09:47:31;100252.50;;;13.00;84.79
4576;BME280;2300;51.874;8.430;2023-04-28T09:50:01;100251.03;;;13.19;84.81
4576;BME280;2300;51.874;8.430;2023-04-28T09:52:29;100252.00;;;13.30;83.07
4576;BME280;2300;51.874;8.430;2023-04-28T09:54:56;100270.69;;;13.55;82.62
4576;BME280;2300;51.874;8.430;2023-04-28T09:57:23;100255.22;;;12.95;82.51
4576;BME280;2300;51.874;8.430;2023-04-28T09:59:51;100264.09;;;13.02;83.25
4576;BME280;2300;51.874;8.430;2023-04-28T10:02:19;100245.56;;;12.98;82.79
4576;BME280;2300;51.874;8.430;2023-04-28T10:04:47;100267.19;;;13.06;83.12
4576;BME280;2300;51.874;8.430;2023-04-28T10:07:15;100264.59;;;13.21;82.60
4576;BME280;2300;51.874;8.430;2023-04-28T10:09:43;100241.91;;;13.14;82.59
4576;BME280;2300;51.874;8.430;2023-04-28T10:12:13;100248.31;;;13.51;81.69
4576;BME280;2300;51.874;8.430;2023-04-28T10:14:41;100236.22;;;13.52;81.92
4576;BME280;2300;51.874;8.430;2023-04-28T10:17:09;100240.34;;;13.55;81.71
4576;BME280;2300;51.874;8.430;2023-04-28T10:19:36;100257.91;;;14.07;81.04
4576;BME280;2300;51.874;8.430;2023-04-28T10:22:15;100249.13;;;14.20;79.63
4576;BME280;2300;51.874;8.430;2023-04-28T10:24:58;100243.22;;;14.02;78.12
4576;BME280;2300;51.874;8.430;2023-04-28T10:27:29;100246.88;;;13.75;78.27
4576;BME280;2300;51.874;8.430;2023-04-28T10:30:10;100243.63;;;13.84;78.89
4576;BME280;2300;51.874;8.430;2023-04-28T10:32:37;100245.19;;;14.06;77.96
4576;BME280;2300;51.874;8.430;2023-04-28T10:35:42;100249.06;;;14.10;79.62
4576;BME280;2300;51.874;8.430;2023-04-28T10:38:11;100237.03;;;14.27;78.39
4576;BME280;2300;51.874;8.430;2023-04-28T10:40:38;100246.22;;;14.42;78.45
4576;BME280;2300;51.874;8.430;2023-04-28T10:43:06;100239.41;;;14.60;77.59
4576;BME280;2300;51.874;8.430;2023-04-28T10:46:02;100239.53;;;14.85;76.94
4576;BME280;2300;51.874;8.430;2023-04-28T10:48:53;100240.66;;;14.99;76.17
4576;BME280;2300;51.874;8.430;2023-04-28T10:51:21;100216.06;;;15.08;75.60
4576;BME280;2300;51.874;8.430;2023-04-28T10:54:13;100209.97;;;14.96;76.23
4576;BME280;2300;51.874;8.430;2023-04-28T10:56:41;100221.69;;;15.28;75.19
4576;BME280;2300;51.874;8.430;2023-04-28T10:59:29;100223.06;;;15.36;74.80
4576;BME280;2300;51.874;8.430;2023-04-28T11:05:18;100203.44;;;15.42;74.66
4576;BME280;2300;51.874;8.430;2023-04-28T11:11:19;100215.59;;;15.87;72.96
4576;BME280;2300;51.874;8.430;2023-04-28T11:13:46;100216.97;;;15.95;73.48
4576;BME280;2300;51.874;8.430;2023-04-28T11:16:14;100175.44;;;16.00;72.53
4576;BME280;2300;51.874;8.430;2023-04-28T11:18:50;100205.06;;;16.14;71.19
4576;BME280;2300;51.874;8.430;2023-04-28T11:21:18;100215.28;;;16.14;72.90
4576;BME280;2300;51.874;8.430;2023-04-28T11:23:45;100204.44;;;16.27;71.51
4576;BME280;2300;51.874;8.430;2023-04-28T11:26:12;100203.63;;;16.07;72.22
4576;BME280;2300;51.874;8.430;2023-04-28T11:28:46;100172.97;;;15.73;73.69
4576;BME280;2300;51.874;8.430;2023-04-28T11:31:13;100154.13;;;15.95;73.35
4576;BME280;2300;51.874;8.430;2023-04-28T11:33:44;100189.84;;;16.76;72.92
4576;BME280;2300;51.874;8.430;2023-04-28T11:36:23;100181.03;;;16.64;71.48
4576;BME280;2300;51.874;8.430;2023-04-28T11:38:50;100180.91;;;16.84;71.29
4576;BME280;2300;51.874;8.430;2023-04-28T11:41:17;100162.72;;;16.73;71.20
4576;BME280;2300;51.874;8.430;2023-04-28T11:43:43;100194.13;;;17.02;70.01
4576;BME280;2300;51.874;8.430;2023-04-28T11:46:15;100195.84;;;16.98;69.93
4576;BME280;2300;51.874;8.430;2023-04-28T11:48:41;100183.06;;;16.97;70.51
4576;BME280;2300;51.874;8.430;2023-04-28T11:51:08;100188.97;;;17.35;70.01
4576;BME280;2300;51.874;8.430;2023-04-28T11:53:45;100191.97;;;17.38;69.52
4576;BME280;2300;51.874;8.430;2023-04-28T11:56:15;100189.81;;;17.64;68.18
4576;BME280;2300;51.874;8.430;2023-04-28T11:58:41;100192.22;;;17.42;68.25
4576;BME280;2300;51.874;8.430;2023-04-28T12:01:08;100191.66;;;17.45;69.07
4576;BME280;2300;51.874;8.430;2023-04-28T12:03:42;100192.53;;;17.40;69.32
4576;BME280;2300;51.874;8.430;2023-04-28T12:06:09;100190.63;;;17.98;69.04
4576;BME280;2300;51.874;8.430;2023-04-28T12:08:36;100169.31;;;17.89;68.10
4576;BME280;2300;51.874;8.430;2023-04-28T12:11:11;100170.09;;;18.23;67.68
4576;BME280;2300;51.874;8.430;2023-04-28T12:13:38;100172.75;;;18.33;66.95
4576;BME280;2300;51.874;8.430;2023-04-28T12:16:07;100160.25;;;18.31;67.06
4576;BME280;2300;51.874;8.430;2023-04-28T12:18:34;100148.94;;;18.46;67.23
4576;BME280;2300;51.874;8.430;2023-04-28T12:21:01;100154.78;;;18.68;67.67
4576;BME280;2300;51.874;8.430;2023-04-28T12:23:30;100148.25;;;18.35;67.46
4576;BME280;2300;51.874;8.430;2023-04-28T12:25:57;100130.47;;;18.36;67.10
4576;BME280;2300;51.874;8.430;2023-04-28T12:28:35;100152.44;;;18.09;67.50
4576;BME280;2300;51.874;8.430;2023-04-28T12:31:04;100156.53;;;17.88;67.78
4576;BME280;2300;51.874;8.430;2023-04-28T12:33:31;100162.66;;;18.19;68.38
4576;BME280;2300;51.874;8.430;2023-04-28T12:36:05;100162.34;;;17.91;68.76
4576;BME280;2300;51.874;8.430;2023-04-28T12:38:32;100156.78;;;17.91;69.15
4576;BME280;2300;51.874;8.430;2023-04-28T12:41:01;100155.00;;;17.77;69.06
4576;BME280;2300;51.874;8.430;2023-04-28T12:43:28;100149.00;;;17.65;69.46
4576;BME280;2300;51.874;8.430;2023-04-28T12:45:55;100150.28;;;17.77;69.64
4576;BME280;2300;51.874;8.430;2023-04-28T12:48:22;100142.06;;;18.20;68.50
4576;BME280;2300;51.874;8.430;2023-04-28T12:50:49;100152.53;;;18.70;66.40
4576;BME280;2300;51.874;8.430;2023-04-28T12:53:16;100147.47;;;18.30;67.36
4576;BME280;2300;51.874;8.430;2023-04-28T12:55:42;100132.78;;;18.06;68.56
4576;BME280;2300;51.874;8.430;2023-04-28T12:58:09;100101.22;;;17.68;68.58
4576;BME280;2300;51.874;8.430;2023-04-28T13:00:37;100162.69;;;17.56;68.98
4576;BME280;2300;51.874;8.430;2023-04-28T13:03:07;100157.53;;;17.05;70.87
4576;BME280;2300;51.874;8.430;2023-04-28T13:05:33;100160.47;;;16.75;72.99
4576;BME280;2300;51.874;8.430;2023-04-28T13:08:00;100165.94;;;16.85;72.94
4576;BME280;2300;51.874;8.430;2023-04-28T13:10:27;100163.09;;;16.95;72.32
4576;BME280;2300;51.874;8.430;2023-04-28T13:12:53;100160.03;;;16.58;72.99
4576;BME280;2300;51.874;8.430;2023-04-28T13:15:20;100157.97;;;16.79;72.62
4576;BME280;2300;51.874;8.430;2023-04-28T13:17:48;100157.41;;;16.76;73.05
4576;BME280;2300;51.874;8.430;2023-04-28T13:20:16;100156.13;;;16.54;73.40
4576;BME280;2300;51.874;8.430;2023-04-28T13:22:42;100155.59;;;16.57;73.23
4576;BME280;2300;51.874;8.430;2023-04-28T13:25:09;100141.72;;;16.57;72.99
4576;BME280;2300;51.874;8.430;2023-04-28T13:27:35;100149.03;;;16.87;72.91